Sea Thames — V2BV1 — position and weather

sailwx.info

Track history (hours):
 
Tides and Currents Weather Stations Pressure Air Temp Water Temp Dewpoint Dewpoint Depression Visibility Wind Speed Wind Dir Waves Ship Positions

Sea Thames

Last reported at 2016-Dec-04 16:29 UTC. Time now 2016-Dec-05 14:37 UTC.
Position N 39°17' W 009°51'.

Length 87 m; draft 3.9 m.

Type: Cargo ship. MMSI: 304933000.

Date/timePositionNaut miles runAvg speedWind from/ knotsBaromVisibWave heightAir tempDewpointWater temp
2016-Dec-04 16:29N 39°17' W 009°51'8 8.8
2016-Dec-04 15:33N 39°09' W 009°51'9 8.5
2016-Dec-04 14:33N 39°00' W 009°51'9 8.8
2016-Dec-04 13:34N 38°51' W 009°51'9 8.5
2016-Dec-04 12:33N 38°43' W 009°51'8 7.9
2016-Dec-04 11:33N 38°35' W 009°49'8 7.9
2016-Dec-04 10:33N 38°28' W 009°46'8 8.3
2016-Dec-04 09:33N 38°19' W 009°44'9 8.2
2016-Dec-04 08:30N 38°11' W 009°42'  
2016-Dec-01 03:33N 35°59' W 005°24'272 6.3
2016-Nov-29 08:31N 38°34' W 010°04'21 9.6
2016-Nov-29 06:20N 38°54' W 010°07'8 9.9
2016-Nov-29 05:34N 39°02' W 010°07'  
Track history (hours):
 
Tides and Currents Weather Stations Pressure Air Temp Water Temp Dewpoint Dewpoint Depression Visibility Wind Speed Wind Dir Waves Ship Positions

Sea Thames

Last reported at 2016-Dec-04 16:29 UTC. Time now 2016-Dec-05 14:37 UTC.
Position N 39°17' W 009°51'.

Length 87 m; draft 3.9 m.

Type: Cargo ship. MMSI: 304933000.

Date/timePositionNaut miles runAvg speedWind from/ knotsBaromVisibWave heightAir tempDewpointWater temp
2016-Dec-04 16:29N 39°17' W 009°51'8 8.8
2016-Dec-04 15:33N 39°09' W 009°51'9 8.5
2016-Dec-04 14:33N 39°00' W 009°51'9 8.8
2016-Dec-04 13:34N 38°51' W 009°51'9 8.5
2016-Dec-04 12:33N 38°43' W 009°51'8 7.9
2016-Dec-04 11:33N 38°35' W 009°49'8 7.9
2016-Dec-04 10:33N 38°28' W 009°46'8 8.3
2016-Dec-04 09:33N 38°19' W 009°44'9 8.2
2016-Dec-04 08:30N 38°11' W 009°42'  
2016-Dec-01 03:33N 35°59' W 005°24'272 6.3
2016-Nov-29 08:31N 38°34' W 010°04'21 9.6
2016-Nov-29 06:20N 38°54' W 010°07'8 9.9
2016-Nov-29 05:34N 39°02' W 010°07'  

Dump ship's entire track history